Time;durP1;ratioP1;P1;durP2;ratioP2;P2;SDS_P1;SDS_P2;PMS_P1;PMS_P2;Temp;Humidity;BMP_temperature;BMP_pressure;BME280_temperature;BME280_humidity;BME280_pressure;Samples;Min_cycle;Max_cycle;Signal;HPM_P1;HPM_P2
2022/11/10 00:00:14;;;;;;;5.65;1.63;;;11.60;99.90;;;;;;5013105;28;20187;-82
2022/11/10 00:02:42;;;;;;;8.70;1.88;;;11.50;99.90;;;;;;5014398;28;20498;-82
2022/11/10 00:05:12;;;;;;;5.43;1.88;;;11.60;99.90;;;;;;5012711;28;20618;-83
2022/11/10 00:07:38;;;;;;;9.00;1.55;;;11.60;99.90;;;;;;5014298;28;20241;-85
2022/11/10 00:10:04;;;;;;;9.63;1.83;;;11.60;99.90;;;;;;5013191;28;20207;-84
2022/11/10 00:12:31;;;;;;;4.40;1.55;;;11.50;99.90;;;;;;5012814;28;20223;-84
2022/11/10 00:17:40;;;;;;;4.05;1.48;;;11.50;99.90;;;;;;5014620;28;20170;-82
2022/11/10 00:20:07;;;;;;;5.70;1.77;;;11.50;99.90;;;;;;5013972;28;20515;-84
2022/11/10 00:22:34;;;;;;;5.22;1.45;;;11.50;99.90;;;;;;5029516;28;20241;-84
2022/11/10 00:25:00;;;;;;;7.78;1.75;;;11.50;99.90;;;;;;5012846;28;20214;-86
2022/11/10 00:27:25;;;;;;;5.38;1.98;;;11.50;99.90;;;;;;5029336;28;20280;-82
2022/11/10 00:29:51;;;;;;;11.43;1.95;;;11.50;99.90;;;;;;5012779;28;20278;-84
2022/11/10 00:32:17;;;;;;;6.28;2.03;;;11.50;99.90;;;;;;5012943;28;20190;-83
2022/11/10 00:34:42;;;;;;;4.53;1.58;;;11.50;99.90;;;;;;5012728;28;20179;-83
2022/11/10 00:37:08;;;;;;;3.85;1.40;;;11.50;99.90;;;;;;5012643;28;20175;-84
2022/11/10 00:39:34;;;;;;;6.25;2.10;;;11.50;99.90;;;;;;5012901;28;20175;-82
2022/11/10 00:41:59;;;;;;;5.85;1.83;;;11.40;99.90;;;;;;5012684;28;20282;-82
2022/11/10 00:44:25;;;;;;;5.80;1.90;;;11.40;99.90;;;;;;5012736;28;20206;-83
2022/11/10 00:46:51;;;;;;;10.10;1.58;;;11.40;99.90;;;;;;5028944;28;20182;-84
2022/11/10 00:49:16;;;;;;;6.40;2.00;;;11.40;99.90;;;;;;5029299;28;20179;-83
2022/11/10 00:51:42;;;;;;;9.98;2.08;;;11.50;99.90;;;;;;5028801;28;20219;-84
2022/11/10 00:54:08;;;;;;;7.50;1.98;;;11.40;99.90;;;;;;5012553;28;20271;-83
2022/11/10 00:56:33;;;;;;;7.00;1.90;;;11.40;99.90;;;;;;5015391;28;20186;-83
2022/11/10 00:58:59;;;;;;;7.45;2.05;;;11.40;99.90;;;;;;5016250;28;20524;-82
2022/11/10 01:01:26;;;;;;;7.43;1.70;;;11.40;99.90;;;;;;5016333;28;20194;-86
2022/11/10 01:03:52;;;;;;;6.47;1.77;;;11.40;99.90;;;;;;5032711;28;20627;-84
2022/11/10 01:06:20;;;;;;;8.57;2.00;;;11.40;99.90;;;;;;5017045;28;20179;-83
2022/11/10 01:08:45;;;;;;;7.88;1.92;;;11.40;99.90;;;;;;5016186;28;20164;-83
2022/11/10 01:11:23;;;;;;;6.18;2.10;;;11.40;99.90;;;;;;5016126;28;20210;-83
2022/11/10 01:13:50;;;;;;;5.18;1.95;;;11.40;99.90;;;;;;5015888;28;20229;-83
2022/11/10 01:16:19;;;;;;;4.38;1.92;;;11.30;99.90;;;;;;5015862;28;20186;-83
2022/11/10 01:25:29;;;;;;;8.30;2.45;;;11.40;99.90;;;;;;4997547;28;20277;-84
2022/11/10 01:27:54;;;;;;;9.30;2.35;;;11.40;99.90;;;;;;4997700;28;20168;-83
2022/11/10 01:30:20;;;;;;;12.02;2.58;;;11.40;99.90;;;;;;5015656;28;20636;-83
2022/11/10 01:32:46;;;;;;;9.48;2.33;;;11.40;99.90;;;;;;5016953;28;20237;-84
2022/11/10 01:35:11;;;;;;;8.02;2.08;;;11.40;99.90;;;;;;5015372;28;20183;-84
2022/11/10 01:37:38;;;;;;;8.48;1.80;;;11.40;99.90;;;;;;5015470;28;20267;-83
2022/11/10 01:40:05;;;;;;;6.72;2.03;;;11.50;99.90;;;;;;5016906;28;20195;-85
2022/11/10 01:43:00;;;;;;;8.48;2.00;;;11.40;99.90;;;;;;5016537;28;20226;-85
2022/11/10 01:45:39;;;;;;;10.27;1.90;;;11.40;99.90;;;;;;5010834;28;20218;-84
2022/11/10 01:48:07;;;;;;;10.38;2.30;;;11.40;99.90;;;;;;5016538;28;20618;-83
2022/11/10 01:50:38;;;;;;;7.80;1.92;;;11.30;99.90;;;;;;5015110;28;20226;-83
2022/11/10 01:53:08;;;;;;;5.43;2.03;;;11.30;99.90;;;;;;5016368;28;20174;-83
2022/11/10 01:55:36;;;;;;;7.70;2.08;;;11.30;99.90;;;;;;5015351;28;20190;-84
2022/11/10 01:58:02;;;;;;;8.88;2.25;;;11.30;99.90;;;;;;5016315;28;20195;-85
2022/11/10 02:00:28;;;;;;;11.95;2.05;;;11.30;99.90;;;;;;5015334;28;20171;-83
2022/11/10 02:03:22;;;;;;;9.20;2.50;;;11.30;99.90;;;;;;5015169;28;20183;-84
2022/11/10 02:05:49;;;;;;;9.27;1.80;;;11.20;99.90;;;;;;5014247;28;20219;-86
2022/11/10 02:08:16;;;;;;;7.40;2.20;;;11.20;99.90;;;;;;5016139;28;20168;-82
2022/11/10 02:10:43;;;;;;;13.32;2.30;;;11.10;99.90;;;;;;5016581;28;20175;-83
2022/11/10 02:13:10;;;;;;;10.25;2.58;;;11.10;99.90;;;;;;5031189;28;20277;-85
2022/11/10 02:15:37;;;;;;;7.75;2.30;;;11.10;99.90;;;;;;5016073;28;20171;-84
2022/11/10 02:18:03;;;;;;;10.60;2.60;;;11.00;99.90;;;;;;5014611;28;20306;-83
2022/11/10 02:20:28;;;;;;;6.55;2.00;;;11.00;99.90;;;;;;5014631;28;20187;-84
2022/11/10 02:22:54;;;;;;;9.32;2.50;;;11.00;99.90;;;;;;5014649;28;20183;-84
2022/11/10 02:25:21;;;;;;;6.22;1.95;;;10.90;99.90;;;;;;5014562;28;20662;-84
2022/11/10 02:27:47;;;;;;;8.30;2.13;;;10.90;99.90;;;;;;5016167;28;20187;-84
2022/11/10 02:30:14;;;;;;;8.65;2.22;;;10.90;99.90;;;;;;5016222;28;20186;-83
2022/11/10 02:32:39;;;;;;;5.88;2.33;;;10.90;99.90;;;;;;5015804;28;20183;-84
2022/11/10 02:35:06;;;;;;;4.80;1.92;;;10.90;99.90;;;;;;5015759;28;20171;-83
2022/11/10 02:37:31;;;;;;;12.73;2.67;;;10.80;99.90;;;;;;5015356;28;20225;-87
2022/11/10 02:39:57;;;;;;;9.50;2.55;;;10.80;99.90;;;;;;5015729;28;20202;-86
2022/11/10 02:42:23;;;;;;;6.53;2.53;;;10.80;99.90;;;;;;5015687;28;20175;-85
2022/11/10 02:44:49;;;;;;;7.32;2.08;;;10.70;99.90;;;;;;5015511;28;20203;-85
2022/11/10 02:47:14;;;;;;;11.63;2.10;;;10.70;99.90;;;;;;5015515;28;20183;-85
2022/11/10 02:49:40;;;;;;;8.43;2.40;;;10.70;99.90;;;;;;5015523;28;20167;-86
2022/11/10 02:52:06;;;;;;;9.25;2.83;;;10.60;99.90;;;;;;5030538;28;20187;-83
2022/11/10 02:54:31;;;;;;;6.80;2.47;;;10.60;99.90;;;;;;5014177;28;20175;-83
2022/11/10 02:56:57;;;;;;;14.02;2.92;;;10.60;99.90;;;;;;5015235;28;20187;-84
2022/11/10 02:59:23;;;;;;;8.30;2.63;;;10.60;99.90;;;;;;5015356;28;20211;-86
2022/11/10 03:04:24;;;;;;;7.88;2.60;;;10.50;99.90;;;;;;5295684;23;20242;-88
2022/11/10 03:06:49;;;;;;;12.38;3.15;;;10.40;99.90;;;;;;5008322;28;20666;-87
2022/11/10 03:09:15;;;;;;;8.90;2.92;;;10.40;99.90;;;;;;4993675;28;20172;-87
2022/11/10 03:11:41;;;;;;;9.25;3.28;;;10.40;99.90;;;;;;5008556;28;20218;-87
2022/11/10 03:14:06;;;;;;;7.22;3.25;;;10.40;99.90;;;;;;5008748;28;20682;-88
2022/11/10 03:16:32;;;;;;;11.90;3.30;;;10.40;99.90;;;;;;5008288;28;20175;-87
2022/11/10 03:18:58;;;;;;;11.38;3.50;;;10.30;99.90;;;;;;5007828;28;20194;-87
2022/11/10 03:21:24;;;;;;;10.02;3.83;;;10.30;99.90;;;;;;4992115;28;20307;-87
2022/11/10 03:23:49;;;;;;;13.10;3.60;;;10.40;99.90;;;;;;5008402;28;20172;-87
2022/11/10 03:26:15;;;;;;;12.07;3.67;;;10.30;99.90;;;;;;5008529;28;20187;-88
2022/11/10 03:28:41;;;;;;;6.63;2.95;;;10.30;99.90;;;;;;5008281;28;20184;-86
2022/11/10 03:31:06;;;;;;;14.05;3.42;;;10.30;99.90;;;;;;4993983;28;20164;-87
2022/11/10 03:33:32;;;;;;;10.00;3.53;;;10.30;99.90;;;;;;4991653;28;20633;-88
2022/11/10 03:35:58;;;;;;;8.32;3.55;;;10.30;99.90;;;;;;4992096;28;20651;-87
2022/11/10 03:38:24;;;;;;;11.75;3.95;;;10.20;99.90;;;;;;5008818;28;20207;-87
2022/11/10 03:40:50;;;;;;;9.40;3.65;;;10.30;99.90;;;;;;5008538;28;20182;-87
2022/11/10 03:43:15;;;;;;;15.77;4.25;;;10.20;99.90;;;;;;5008377;28;20644;-87
2022/11/10 03:45:44;;;;;;;12.45;3.88;;;10.20;99.90;;;;;;5008596;28;20204;-87
2022/11/10 03:48:10;;;;;;;12.07;4.68;;;10.20;99.90;;;;;;5008076;28;20200;-87
2022/11/10 03:50:36;;;;;;;11.70;4.00;;;10.20;99.90;;;;;;5008214;28;20175;-88
2022/11/10 03:53:02;;;;;;;8.57;3.33;;;10.20;99.90;;;;;;5008338;28;20174;-88
2022/11/10 03:55:27;;;;;;;14.45;3.50;;;10.10;99.90;;;;;;5008114;28;20226;-88
2022/11/10 03:57:53;;;;;;;9.40;3.50;;;10.10;99.90;;;;;;5007941;28;20672;-88
2022/11/10 04:00:19;;;;;;;8.95;3.30;;;10.20;99.90;;;;;;5011444;28;20175;-87
2022/11/10 04:02:46;;;;;;;9.93;3.17;;;10.10;99.90;;;;;;5012667;28;20160;-88
2022/11/10 04:10:43;;;;;;;9.68;3.38;;;10.10;99.90;;;;;;5012558;28;20166;-88
2022/11/10 04:15:53;;;;;;;10.90;3.30;;;10.00;99.90;;;;;;5013174;28;20217;-87
2022/11/10 04:18:25;;;;;;;12.27;3.70;;;10.00;99.90;;;;;;5010930;28;20622;-88
2022/11/10 04:20:59;;;;;;;7.55;3.33;;;10.00;99.90;;;;;;5012381;28;20186;-88
2022/11/10 04:23:27;;;;;;;14.45;3.45;;;9.90;99.90;;;;;;5011238;28;20266;-88
2022/11/10 04:28:48;;;;;;;12.25;3.40;;;9.90;99.90;;;;;;5012417;28;20194;-87
2022/11/10 04:31:16;;;;;;;14.80;4.15;;;10.00;99.90;;;;;;5016017;28;20175;-88
2022/11/10 04:33:42;;;;;;;13.57;3.90;;;10.00;99.90;;;;;;5014751;28;20182;-87
2022/11/10 04:36:10;;;;;;;7.75;3.20;;;9.90;99.90;;;;;;5014775;28;20229;-87
2022/11/10 04:38:36;;;;;;;15.18;3.42;;;9.90;99.90;;;;;;5014954;28;20301;-87
2022/11/10 04:41:03;;;;;;;9.77;3.70;;;9.90;99.90;;;;;;5015847;28;20167;-87
2022/11/10 04:43:30;;;;;;;6.63;3.15;;;9.90;99.90;;;;;;5014827;28;20274;-87
2022/11/10 04:45:58;;;;;;;13.98;3.38;;;9.90;99.90;;;;;;5014648;28;20217;-87
2022/11/10 04:48:26;;;;;;;9.35;3.03;;;9.90;99.90;;;;;;4997972;28;20238;-87
2022/11/10 04:50:52;;;;;;;12.63;3.70;;;9.80;99.90;;;;;;5014666;28;20175;-87
2022/11/10 04:53:19;;;;;;;14.40;4.25;;;9.80;99.90;;;;;;5014580;28;20269;-87
2022/11/10 04:55:46;;;;;;;10.75;3.97;;;9.80;99.90;;;;;;5014866;28;20548;-87
2022/11/10 04:58:13;;;;;;;7.55;3.28;;;9.80;99.90;;;;;;5017278;28;20214;-88
2022/11/10 05:00:40;;;;;;;11.15;3.90;;;9.80;99.90;;;;;;5035262;28;20171;-87
2022/11/10 05:03:08;;;;;;;10.15;3.88;;;9.80;99.90;;;;;;5035096;28;20635;-89
2022/11/10 05:05:34;;;;;;;10.07;3.78;;;9.80;99.90;;;;;;5035268;28;20218;-87
2022/11/10 05:08:00;;;;;;;9.68;3.90;;;9.80;99.90;;;;;;5034147;28;20670;-89
2022/11/10 05:10:26;;;;;;;11.80;3.85;;;9.80;99.90;;;;;;5034144;28;20178;-88
2022/11/10 05:12:53;;;;;;;13.27;4.45;;;9.70;99.90;;;;;;5033686;28;20174;-87
2022/11/10 05:15:19;;;;;;;11.98;3.90;;;9.70;99.90;;;;;;5033918;28;20630;-87
2022/11/10 05:17:50;;;;;;;16.95;4.65;;;9.70;99.90;;;;;;5035031;28;20690;-87
2022/11/10 05:20:17;;;;;;;9.40;4.70;;;9.70;99.90;;;;;;5033918;28;20175;-87
2022/11/10 05:23:36;;;;;;;10.63;4.70;;;9.70;99.90;;;;;;5035056;28;20162;-88
2022/11/10 05:25:36;;;;;;;15.85;4.63;;;9.70;99.90;;;;;;5034720;28;20230;-86
2022/11/10 05:28:02;;;;;;;13.45;4.45;;;9.70;99.90;;;;;;5033226;28;20190;-88
2022/11/10 05:30:29;;;;;;;10.73;3.95;;;9.70;99.90;;;;;;5013904;28;20179;-87
2022/11/10 05:32:55;;;;;;;8.85;4.25;;;9.70;99.90;;;;;;5014102;28;20191;-88
2022/11/10 05:35:24;;;;;;;9.95;4.45;;;9.70;99.90;;;;;;5013785;28;20543;-87
2022/11/10 05:37:50;;;;;;;18.27;5.75;;;9.70;99.90;;;;;;5013452;28;20207;-88
2022/11/10 05:40:16;;;;;;;8.75;4.57;;;9.70;99.90;;;;;;5015202;28;20168;-87
2022/11/10 05:42:48;;;;;;;12.45;5.30;;;9.70;99.90;;;;;;5013061;28;20171;-87
2022/11/10 05:45:15;;;;;;;15.95;5.18;;;9.70;99.90;;;;;;5014663;28;20197;-87
2022/11/10 05:47:41;;;;;;;11.63;4.72;;;9.70;99.90;;;;;;5014810;28;20285;-87
2022/11/10 05:50:08;;;;;;;12.95;4.60;;;9.70;99.90;;;;;;5013917;28;20559;-89
2022/11/10 05:52:34;;;;;;;10.68;4.45;;;9.70;99.90;;;;;;5029790;28;20202;-88
2022/11/10 05:55:01;;;;;;;14.23;4.88;;;9.70;99.90;;;;;;5014655;28;20251;-87
2022/11/10 05:57:26;;;;;;;19.85;5.13;;;9.70;99.90;;;;;;5013759;28;20277;-88
2022/11/10 05:59:52;;;;;;;9.38;4.43;;;9.60;99.90;;;;;;5029999;28;20281;-86
2022/11/10 06:02:18;;;;;;;10.63;4.78;;;9.70;99.90;;;;;;5033380;28;20219;-87
2022/11/10 06:04:43;;;;;;;16.77;5.03;;;9.70;99.90;;;;;;5034156;28;20230;-87
2022/11/10 06:07:10;;;;;;;11.88;4.82;;;9.60;99.90;;;;;;5032761;28;20736;-87
2022/11/10 06:09:36;;;;;;;12.13;5.53;;;9.60;99.90;;;;;;5033272;28;20167;-88
2022/11/10 06:12:03;;;;;;;15.50;5.78;;;9.60;99.90;;;;;;5034202;28;20224;-88
2022/11/10 06:14:28;;;;;;;12.70;5.03;;;9.60;99.90;;;;;;5032958;28;20170;-87
2022/11/10 06:16:54;;;;;;;21.77;6.32;;;9.60;99.90;;;;;;5032797;28;20206;-88
2022/11/10 06:19:20;;;;;;;14.35;5.03;;;9.60;99.90;;;;;;5032909;28;20179;-86
2022/11/10 06:21:45;;;;;;;13.30;5.18;;;9.70;99.90;;;;;;5032950;28;20197;-88
2022/11/10 06:24:11;;;;;;;10.65;4.93;;;9.70;99.90;;;;;;5032453;28;20206;-87
2022/11/10 06:26:37;;;;;;;16.40;5.40;;;9.70;99.90;;;;;;5033734;28;20289;-89
2022/11/10 06:29:03;;;;;;;19.10;5.20;;;9.70;99.90;;;;;;5023760;28;20179;-88
2022/11/10 06:31:29;;;;;;;13.88;5.32;;;9.70;99.90;;;;;;5012703;28;20270;-88
2022/11/10 06:33:55;;;;;;;12.18;5.22;;;9.80;99.90;;;;;;5012495;28;20250;-87
2022/11/10 06:36:23;;;;;;;15.23;5.63;;;9.80;99.90;;;;;;5013347;28;20164;-87
2022/11/10 06:38:49;;;;;;;9.65;4.55;;;9.80;99.90;;;;;;5013484;28;20218;-88
2022/11/10 06:41:14;;;;;;;10.57;4.82;;;9.80;99.90;;;;;;5012567;28;20620;-87
2022/11/10 06:43:41;;;;;;;10.15;5.05;;;9.80;99.90;;;;;;5012124;28;20181;-87
2022/11/10 06:46:07;;;;;;;10.65;4.72;;;9.80;99.90;;;;;;5013521;28;20253;-87
2022/11/10 06:48:32;;;;;;;13.48;4.82;;;9.80;99.90;;;;;;5012778;28;20203;-86
2022/11/10 06:51:02;;;;;;;14.35;5.15;;;9.80;99.90;;;;;;5012819;28;20175;-89
2022/11/10 06:53:28;;;;;;;17.75;4.90;;;9.80;99.90;;;;;;5012432;28;20175;-87
2022/11/10 06:55:53;;;;;;;12.68;5.10;;;9.80;99.90;;;;;;5013707;28;20167;-87
2022/11/10 06:58:19;;;;;;;11.63;4.55;;;9.80;99.90;;;;;;5016254;28;20206;-86
2022/11/10 07:00:47;;;;;;;16.38;4.63;;;9.90;99.90;;;;;;5031888;28;20269;-88
2022/11/10 07:03:14;;;;;;;10.90;4.95;;;9.90;99.90;;;;;;5031770;28;20237;-87
2022/11/10 07:05:40;;;;;;;12.00;4.78;;;9.80;99.90;;;;;;5031864;28;20207;-87
2022/11/10 07:08:17;;;;;;;20.05;5.40;;;9.80;99.90;;;;;;5031507;28;20194;-87
2022/11/10 07:10:44;;;;;;;14.85;4.90;;;9.80;99.90;;;;;;5032127;28;20577;-87
2022/11/10 07:13:10;;;;;;;11.52;4.40;;;9.90;99.90;;;;;;5031843;28;20177;-87
2022/11/10 07:15:36;;;;;;;14.60;4.95;;;9.90;99.90;;;;;;5031872;28;20210;-87
2022/11/10 07:18:03;;;;;;;13.40;4.55;;;9.90;99.90;;;;;;5031723;28;20210;-88
2022/11/10 07:20:30;;;;;;;11.23;4.55;;;9.90;99.90;;;;;;5032875;28;20171;-88
2022/11/10 07:23:00;;;;;;;7.70;4.20;;;9.90;99.90;;;;;;5031681;28;20690;-88
2022/11/10 07:25:26;;;;;;;12.23;4.43;;;10.00;99.90;;;;;;5031517;28;20205;-88
2022/11/10 07:27:56;;;;;;;11.80;4.50;;;10.00;99.90;;;;;;5032698;28;20298;-87
2022/11/10 07:30:22;;;;;;;26.15;4.70;;;10.00;99.90;;;;;;5011786;28;20179;-88
2022/11/10 07:33:09;;;;;;;13.20;4.60;;;10.10;99.90;;;;;;5011662;28;20167;-88
2022/11/10 07:35:35;;;;;;;17.88;4.50;;;10.10;99.90;;;;;;5010223;28;20187;-87
2022/11/10 07:38:04;;;;;;;14.43;4.38;;;10.10;99.90;;;;;;5011280;28;20322;-88
2022/11/10 07:40:31;;;;;;;13.20;4.22;;;10.20;99.90;;;;;;5011707;28;20187;-87
2022/11/10 07:42:57;;;;;;;13.30;4.50;;;10.30;99.90;;;;;;5011281;28;20171;-88
2022/11/10 07:45:23;;;;;;;9.80;4.32;;;10.40;99.90;;;;;;5012523;28;20257;-87
2022/11/10 07:47:49;;;;;;;13.27;4.43;;;10.50;99.90;;;;;;5011544;28;20616;-87
2022/11/10 07:50:16;;;;;;;11.85;4.70;;;10.60;99.90;;;;;;5011645;28;20167;-88
2022/11/10 07:52:42;;;;;;;11.50;4.57;;;10.60;99.90;;;;;;5012529;28;20205;-88
2022/11/10 07:55:08;;;;;;;10.30;4.57;;;10.60;99.90;;;;;;5012607;28;20626;-88
2022/11/10 07:57:34;;;;;;;12.90;4.40;;;10.70;99.90;;;;;;5011373;28;20674;-87
2022/11/10 07:59:59;;;;;;;11.35;4.47;;;10.70;99.90;;;;;;5028651;28;20232;-88
2022/11/10 08:02:25;;;;;;;14.85;4.80;;;10.70;99.90;;;;;;5031338;28;20194;-87
2022/11/10 08:04:51;;;;;;;11.70;3.95;;;10.60;99.90;;;;;;5030094;28;20245;-87
2022/11/10 08:07:17;;;;;;;13.80;4.45;;;10.60;99.90;;;;;;5030861;28;20226;-87
2022/11/10 08:09:43;;;;;;;15.38;4.28;;;10.60;99.90;;;;;;5030898;28;20210;-87
2022/11/10 08:12:09;;;;;;;12.93;3.97;;;10.50;99.90;;;;;;5030835;28;20201;-87
2022/11/10 08:14:35;;;;;;;12.52;4.35;;;10.50;99.90;;;;;;5030911;28;20193;-88
2022/11/10 08:17:00;;;;;;;14.05;4.40;;;10.50;99.90;;;;;;5030230;28;20266;-88
2022/11/10 08:19:26;;;;;;;12.50;3.67;;;10.60;99.90;;;;;;5029899;28;20193;-87
2022/11/10 08:21:52;;;;;;;11.10;3.80;;;10.60;99.90;;;;;;5030091;28;20166;-88
2022/11/10 08:24:18;;;;;;;18.92;4.35;;;10.70;99.90;;;;;;5031392;28;20193;-88
2022/11/10 08:26:43;;;;;;;10.30;3.90;;;10.80;99.90;;;;;;5031284;28;20704;-87
2022/11/10 08:29:09;;;;;;;17.33;4.05;;;10.90;99.90;;;;;;5030009;28;20657;-87
2022/11/10 08:31:37;;;;;;;18.02;3.90;;;10.90;99.90;;;;;;5030225;28;20533;-88
2022/11/10 08:34:03;;;;;;;14.45;3.85;;;10.90;99.90;;;;;;5030163;28;20250;-89
2022/11/10 08:36:30;;;;;;;10.93;3.97;;;10.90;99.90;;;;;;5030503;28;20262;-88
2022/11/10 08:38:56;;;;;;;11.77;3.83;;;10.90;99.90;;;;;;5030398;28;20175;-87
2022/11/10 08:41:22;;;;;;;21.75;4.43;;;10.90;99.90;;;;;;5031361;28;20167;-88
2022/11/10 08:43:48;;;;;;;14.35;4.38;;;10.80;99.90;;;;;;5031617;28;20190;-88
2022/11/10 08:46:15;;;;;;;13.38;3.80;;;10.80;99.90;;;;;;5030345;28;20210;-87
2022/11/10 08:48:41;;;;;;;14.70;4.20;;;10.70;99.90;;;;;;5030293;28;20626;-88
2022/11/10 08:51:07;;;;;;;10.27;4.03;;;10.80;99.90;;;;;;5030271;28;20174;-87
2022/11/10 08:53:32;;;;;;;14.98;3.47;;;10.80;99.90;;;;;;5029864;28;20202;-88
2022/11/10 08:55:59;;;;;;;11.50;3.78;;;11.00;99.90;;;;;;5029843;28;20171;-89
2022/11/10 08:58:25;;;;;;;13.85;3.63;;;11.00;99.90;;;;;;5025627;28;20207;-88
2022/11/10 09:00:51;;;;;;;18.38;4.20;;;11.10;99.90;;;;;;5010263;28;20230;-87
2022/11/10 09:03:20;;;;;;;14.70;4.35;;;11.20;99.90;;;;;;5011093;28;20229;-87
2022/11/10 09:05:47;;;;;;;9.30;3.35;;;11.20;99.90;;;;;;5010216;28;20238;-87
2022/11/10 09:08:13;;;;;;;12.15;3.80;;;11.20;99.90;;;;;;5009864;28;20199;-87
2022/11/10 09:10:44;;;;;;;12.88;3.30;;;11.20;99.90;;;;;;5011187;28;20209;-89
2022/11/10 09:13:12;;;;;;;16.92;3.90;;;11.30;99.90;;;;;;5010005;28;20187;-88
2022/11/10 09:15:38;;;;;;;15.48;3.80;;;11.30;99.90;;;;;;5009966;28;20179;-87
2022/11/10 09:18:05;;;;;;;12.15;4.22;;;11.30;99.90;;;;;;5014778;28;20199;-88
2022/11/10 09:20:34;;;;;;;6.95;2.92;;;11.40;99.90;;;;;;5016903;28;20255;-88
2022/11/10 09:23:14;;;;;;;12.50;3.35;;;11.50;99.90;;;;;;5033047;28;20179;-88
2022/11/10 09:25:41;;;;;;;12.32;3.28;;;11.50;99.90;;;;;;5033329;28;20285;-90
2022/11/10 09:28:14;;;;;;;16.63;3.88;;;11.60;99.90;;;;;;5033167;28;20194;-88
2022/11/10 09:30:40;;;;;;;14.52;3.53;;;11.60;99.90;;;;;;5033205;28;20638;-87
2022/11/10 09:33:06;;;;;;;12.32;3.50;;;11.70;99.90;;;;;;5033356;28;20183;-88
2022/11/10 09:35:32;;;;;;;12.88;3.80;;;11.70;99.90;;;;;;5032726;28;20179;-88
2022/11/10 09:37:58;;;;;;;8.95;2.92;;;11.70;99.90;;;;;;5032997;28;20561;-87
2022/11/10 09:41:03;;;;;;;14.07;3.15;;;11.70;99.90;;;;;;5033975;28;20178;-88
2022/11/10 09:43:41;;;;;;;12.77;3.42;;;11.70;99.90;;;;;;5029590;28;20243;-87
2022/11/10 09:46:36;;;;;;;12.25;3.17;;;11.70;99.90;;;;;;5032865;28;20206;-88
2022/11/10 09:49:35;;;;;;;11.27;3.38;;;11.80;99.90;;;;;;5032133;28;20651;-89
2022/11/10 09:52:04;;;;;;;11.60;3.67;;;11.90;99.90;;;;;;5017882;28;20191;-90
2022/11/10 09:54:50;;;;;;;12.80;3.03;;;11.90;99.90;;;;;;5013219;28;20175;-88
2022/11/10 09:57:20;;;;;;;9.27;3.17;;;11.90;99.90;;;;;;5012718;28;20199;-89
2022/11/10 09:59:47;;;;;;;10.88;3.65;;;11.90;99.90;;;;;;5012912;28;20183;-87
2022/11/10 10:02:30;;;;;;;15.30;2.85;;;11.90;99.90;;;;;;5012716;28;20174;-88
2022/11/10 10:05:16;;;;;;;11.77;3.13;;;11.90;99.90;;;;;;5013528;28;20282;-87
2022/11/10 10:07:55;;;;;;;11.73;3.13;;;12.10;99.90;;;;;;5013464;28;20199;-88
2022/11/10 10:10:48;;;;;;;18.58;3.80;;;12.10;99.90;;;;;;5014187;28;20167;-89
2022/11/10 10:13:31;;;;;;;13.18;2.95;;;12.20;99.90;;;;;;5013066;28;20176;-88
2022/11/10 10:16:06;;;;;;;16.13;3.83;;;12.20;99.90;;;;;;5012769;28;20234;-88
2022/11/10 10:19:01;;;;;;;9.52;3.15;;;12.40;99.90;;;;;;5012076;28;20207;-88
2022/11/10 10:21:56;;;;;;;19.65;4.38;;;12.50;99.90;;;;;;5012952;28;20175;-89
2022/11/10 10:24:29;;;;;;;11.43;3.08;;;12.50;99.90;;;;;;5006684;28;20187;-88
2022/11/10 10:26:59;;;;;;;10.30;3.42;;;12.60;99.90;;;;;;5011830;28;20254;-89
2022/11/10 10:29:31;;;;;;;11.45;3.20;;;12.60;99.90;;;;;;5012424;28;20226;-89
2022/11/10 10:31:59;;;;;;;13.65;3.17;;;12.60;99.90;;;;;;5012473;28;20595;-88
2022/11/10 10:34:30;;;;;;;5.82;2.58;;;12.50;99.90;;;;;;5008242;28;20643;-88
2022/11/10 10:36:56;;;;;;;14.15;2.92;;;12.50;99.90;;;;;;4992446;28;20204;-87
2022/11/10 10:39:29;;;;;;;12.82;3.28;;;12.50;99.90;;;;;;5010051;28;20597;-87
2022/11/10 10:41:55;;;;;;;12.35;3.17;;;12.40;99.90;;;;;;5012167;28;20178;-88
2022/11/10 10:44:21;;;;;;;11.50;3.35;;;12.40;99.90;;;;;;5012412;28;20619;-88
2022/11/10 10:46:58;;;;;;;10.30;2.78;;;12.50;99.90;;;;;;5013323;28;20238;-88
2022/11/10 10:49:27;;;;;;;8.93;2.40;;;12.50;99.90;;;;;;5013378;28;20213;-89
2022/11/10 10:52:11;;;;;;;12.85;2.88;;;12.50;99.90;;;;;;5012009;28;20187;-87
2022/11/10 10:54:39;;;;;;;15.43;2.97;;;12.50;99.90;;;;;;5013032;28;20164;-87
2022/11/10 10:57:23;;;;;;;11.68;3.35;;;12.50;99.90;;;;;;5011936;28;20696;-88
2022/11/10 10:59:50;;;;;;;11.15;2.90;;;12.50;99.90;;;;;;5011980;28;20175;-88
2022/11/10 11:02:29;;;;;;;14.50;3.13;;;12.50;99.90;;;;;;5011895;28;20183;-86
2022/11/10 11:05:16;;;;;;;6.07;2.20;;;12.50;99.90;;;;;;5011158;28;20262;-89
2022/11/10 11:07:54;;;;;;;10.55;2.90;;;12.60;99.90;;;;;;5011552;28;20666;-91
2022/11/10 11:10:23;;;;;;;13.40;2.85;;;12.60;99.90;;;;;;5011808;28;20179;-89
2022/11/10 11:12:49;;;;;;;6.15;2.33;;;12.80;99.90;;;;;;5012596;28;20191;-88
2022/11/10 11:15:21;;;;;;;11.63;2.65;;;12.90;99.90;;;;;;5011664;28;20207;-88
2022/11/10 11:18:03;;;;;;;11.60;2.63;;;13.10;99.90;;;;;;5005133;28;20195;-88
2022/11/10 11:20:42;;;;;;;11.10;2.60;;;13.20;99.90;;;;;;5008980;28;20179;-89
2022/11/10 11:23:14;;;;;;;13.02;2.42;;;13.30;99.90;;;;;;4992962;28;20176;-89
2022/11/10 11:25:43;;;;;;;16.85;2.88;;;13.30;99.90;;;;;;4991518;28;20195;-88
2022/11/10 11:28:21;;;;;;;10.73;2.13;;;13.40;99.90;;;;;;4991349;28;20204;-88
2022/11/10 11:31:16;;;;;;;9.15;2.63;;;13.50;99.90;;;;;;4992817;28;20168;-88
2022/11/10 11:33:57;;;;;;;10.82;2.25;;;13.50;99.90;;;;;;5010957;28;20163;-87
2022/11/10 11:37:12;;;;;;;12.77;2.70;;;13.50;99.90;;;;;;5010833;28;20175;-88
2022/11/10 11:40:01;;;;;;;14.02;2.50;;;13.50;99.90;;;;;;4984746;28;20442;-88
2022/11/10 11:43:00;;;;;;;13.48;2.75;;;13.60;99.90;;;;;;5011221;28;20181;-90
2022/11/10 11:45:54;;;;;;;11.63;2.40;;;13.60;99.90;;;;;;4983172;28;20211;-88
2022/11/10 11:48:29;;;;;;;5.50;1.90;;;13.80;99.90;;;;;;5010672;28;20233;-89
2022/11/10 11:51:19;;;;;;;10.60;2.47;;;13.80;99.90;;;;;;5005218;28;20607;-87
2022/11/10 11:54:23;;;;;;;15.75;3.10;;;13.70;99.90;;;;;;4991385;28;20160;-88
2022/11/10 11:56:50;;;;;;;10.40;2.22;;;13.60;99.90;;;;;;4990656;28;20696;-88
2022/11/10 11:59:36;;;;;;;13.52;2.13;;;13.60;99.90;;;;;;4991227;28;20226;-88
2022/11/10 12:02:33;;;;;;;17.08;2.40;;;13.60;99.90;;;;;;4992580;28;20172;-87
2022/11/10 12:05:27;;;;;;;16.30;2.78;;;13.60;99.90;;;;;;4990906;28;20227;-89
2022/11/10 12:08:05;;;;;;;10.45;2.45;;;13.50;99.90;;;;;;4992251;28;20196;-88
2022/11/10 12:10:33;;;;;;;13.77;2.05;;;13.40;99.90;;;;;;4991219;28;20181;-88
2022/11/10 12:13:22;;;;;;;12.23;2.25;;;13.40;99.90;;;;;;4992672;28;20157;-89
2022/11/10 12:15:51;;;;;;;10.43;2.35;;;13.40;99.90;;;;;;4991406;28;20202;-88
2022/11/10 12:18:36;;;;;;;8.43;1.98;;;13.30;99.90;;;;;;4990832;28;20203;-88
2022/11/10 12:21:20;;;;;;;9.68;2.20;;;13.30;99.90;;;;;;4998080;28;20658;-88
2022/11/10 12:24:07;;;;;;;11.45;2.20;;;13.20;99.90;;;;;;5010448;28;20171;-87
2022/11/10 12:27:10;;;;;;;12.32;2.38;;;13.20;99.90;;;;;;5010594;28;20202;-88
2022/11/10 12:29:45;;;;;;;11.70;2.30;;;13.20;99.90;;;;;;5011986;28;20183;-88
2022/11/10 12:32:57;;;;;;;12.00;2.05;;;13.20;99.90;;;;;;5010932;28;20171;-88
2022/11/10 12:35:26;;;;;;;13.68;2.33;;;13.30;99.90;;;;;;4995809;28;20191;-88
2022/11/10 12:37:59;;;;;;;10.90;1.77;;;13.40;99.90;;;;;;5010914;28;20218;-88
2022/11/10 12:40:51;;;;;;;10.43;1.85;;;13.50;99.90;;;;;;5010588;28;20171;-89
2022/11/10 12:43:24;;;;;;;11.02;1.77;;;13.60;99.90;;;;;;5009949;28;20644;-88
2022/11/10 12:45:57;;;;;;;11.27;2.08;;;13.80;99.90;;;;;;5010302;28;20698;-88
2022/11/10 12:48:24;;;;;;;14.50;2.28;;;13.90;99.90;;;;;;5011320;28;20210;-88
2022/11/10 12:51:22;;;;;;;9.32;1.88;;;14.00;99.90;;;;;;5006963;28;20251;-88
2022/11/10 12:53:49;;;;;;;12.05;2.22;;;14.20;99.90;;;;;;4993990;28;20651;-90
2022/11/10 12:56:42;;;;;;;14.95;1.95;;;14.20;99.90;;;;;;4994487;28;20179;-89
2022/11/10 12:59:19;;;;;;;9.55;1.85;;;14.30;99.90;;;;;;4995655;28;20243;-88
2022/11/10 13:01:55;;;;;;;11.30;2.03;;;14.40;99.90;;;;;;4994384;28;20176;-88
2022/11/10 13:04:21;;;;;;;15.20;2.10;;;14.50;99.90;;;;;;4993764;28;20231;-88
2022/11/10 13:06:57;;;;;;;11.32;1.70;;;14.60;99.90;;;;;;4994093;28;20203;-88
2022/11/10 13:09:32;;;;;;;9.80;1.65;;;14.70;99.90;;;;;;4995140;28;20154;-88
2022/11/10 13:12:13;;;;;;;7.85;1.58;;;14.70;99.90;;;;;;4995220;28;20152;-88
2022/11/10 13:14:39;;;;;;;10.85;1.60;;;14.70;99.90;;;;;;4994152;28;20270;-87
2022/11/10 13:17:05;;;;;;;8.82;1.85;;;14.80;99.90;;;;;;4993900;28;20286;-88
2022/11/10 13:19:37;;;;;;;5.93;1.45;;;14.80;99.90;;;;;;4994150;28;20207;-88
2022/11/10 13:22:29;;;;;;;5.60;1.45;;;14.80;99.90;;;;;;4993909;28;20196;-88